createdAt,value
2018-10-02T00:00:46.475Z,-76
2018-10-02T00:01:46.321Z,-76
2018-10-02T00:02:46.453Z,-76
2018-10-02T00:03:46.323Z,-76
2018-10-02T00:04:46.455Z,-76
2018-10-02T00:05:46.349Z,-76
2018-10-02T00:06:46.456Z,-76
2018-10-02T00:07:46.326Z,-76
2018-10-02T00:08:46.457Z,-76
2018-10-02T00:09:46.329Z,-76
2018-10-02T00:10:46.490Z,-76
2018-10-02T00:11:46.335Z,-76
2018-10-02T00:12:46.459Z,-76
2018-10-02T00:13:46.331Z,-76
2018-10-02T00:14:46.463Z,-76
2018-10-02T00:15:46.358Z,-76
2018-10-02T00:16:46.465Z,-76
2018-10-02T00:17:46.335Z,-76
2018-10-02T00:18:46.469Z,-76
2018-10-02T00:19:46.336Z,-76
2018-10-02T00:20:46.491Z,-76
2018-10-02T00:21:46.340Z,-76
2018-10-02T00:22:46.486Z,-76
2018-10-02T00:23:46.340Z,-76
2018-10-02T00:24:46.472Z,-76
2018-10-02T00:25:46.365Z,-76
2018-10-02T00:26:46.473Z,-76
2018-10-02T00:27:46.343Z,-76
2018-10-02T00:28:46.481Z,-76
2018-10-02T00:29:46.346Z,-76
2018-10-02T00:30:46.499Z,-76
2018-10-02T00:31:46.436Z,-76
2018-10-02T00:32:46.484Z,-76
2018-10-02T00:33:46.348Z,-76
2018-10-02T00:34:46.483Z,-77
2018-10-02T00:35:46.373Z,-77
2018-10-02T00:36:46.488Z,-77
2018-10-02T00:37:46.351Z,-77
2018-10-02T00:38:46.487Z,-79
2018-10-02T00:39:46.354Z,-77
2018-10-02T00:40:46.507Z,-77
2018-10-02T00:41:46.357Z,-77
2018-10-02T00:42:46.488Z,-77
2018-10-02T00:43:46.357Z,-77
2018-10-02T00:44:46.491Z,-77
2018-10-02T00:45:46.382Z,-77
2018-10-02T00:46:46.491Z,-77
2018-10-02T00:47:46.360Z,-77
2018-10-02T00:48:46.489Z,-77
2018-10-02T00:49:46.364Z,-77
2018-10-02T00:50:46.517Z,-77
2018-10-02T00:51:46.364Z,-77
2018-10-02T00:52:46.489Z,-77
2018-10-02T00:53:46.362Z,-77
2018-10-02T00:54:46.490Z,-77
2018-10-02T00:55:46.388Z,-77
2018-10-02T00:56:46.494Z,-77
2018-10-02T00:57:46.368Z,-76
2018-10-02T00:58:46.496Z,-76
2018-10-02T00:59:46.366Z,-77
2018-10-02T01:00:46.527Z,-77
2018-10-02T01:01:46.369Z,-77
2018-10-02T01:02:46.498Z,-77
2018-10-02T01:03:46.370Z,-77
2018-10-02T01:04:46.498Z,-76
2018-10-02T01:05:46.372Z,-76
2018-10-02T01:06:46.525Z,-75
2018-10-02T01:07:46.377Z,-76
2018-10-02T01:08:46.505Z,-76
2018-10-02T01:09:46.375Z,-76
2018-10-02T01:10:46.503Z,-76
2018-10-02T01:11:46.403Z,-76
2018-10-02T01:12:46.504Z,-76
2018-10-02T01:13:46.378Z,-76
2018-10-02T01:14:46.509Z,-76
2018-10-02T01:15:46.380Z,-76
2018-10-02T01:16:46.534Z,-76
2018-10-02T01:17:46.384Z,-76
2018-10-02T01:18:46.509Z,-76
2018-10-02T01:19:46.384Z,-77
2018-10-02T01:20:46.515Z,-76
2018-10-02T01:21:46.409Z,-76
2018-10-02T01:22:46.515Z,-76
2018-10-02T01:23:46.388Z,-76
2018-10-02T01:24:46.516Z,-77
2018-10-02T01:25:46.389Z,-77
2018-10-02T01:26:46.545Z,-77
2018-10-02T01:27:46.392Z,-77
2018-10-02T01:28:46.521Z,-77
2018-10-02T01:29:46.398Z,-77
2018-10-02T01:30:46.530Z,-77
2018-10-02T01:31:46.417Z,-77
2018-10-02T01:32:46.523Z,-77
2018-10-02T01:33:46.401Z,-77
2018-10-02T01:34:46.528Z,-77
2018-10-02T01:35:46.402Z,-77
2018-10-02T01:36:46.555Z,-77
2018-10-02T01:37:46.401Z,-77
2018-10-02T01:38:46.524Z,-77
2018-10-02T01:39:46.403Z,-77
2018-10-02T01:40:46.531Z,-77
2018-10-02T01:41:46.563Z,-77
2018-10-02T01:42:46.748Z,-77
2018-10-02T01:43:46.404Z,-77
2018-10-02T01:44:46.530Z,-77
2018-10-02T01:45:46.405Z,-77
2018-10-02T01:46:46.572Z,-77
2018-10-02T01:47:46.406Z,-76
2018-10-02T01:48:46.545Z,-76
2018-10-02T01:49:46.407Z,-77
2018-10-02T01:50:46.535Z,-77
2018-10-02T01:51:46.444Z,-77
2018-10-02T01:52:46.544Z,-76
2018-10-02T01:53:46.416Z,-77
2018-10-02T01:54:46.566Z,-77
2018-10-02T01:55:46.412Z,-76
2018-10-02T01:56:46.563Z,-76
2018-10-02T01:57:46.416Z,-76
2018-10-02T01:58:46.544Z,-76
2018-10-02T01:59:46.416Z,-76
2018-10-02T02:00:46.547Z,-76
2018-10-02T02:01:46.442Z,-76
2018-10-02T02:02:46.550Z,-76
2018-10-02T02:03:46.422Z,-76
2018-10-02T02:04:46.546Z,-76
2018-10-02T02:05:46.420Z,-76
2018-10-02T02:06:46.580Z,-76
2018-10-02T02:07:46.423Z,-76
2018-10-02T02:08:46.557Z,-76
2018-10-02T02:09:46.424Z,-76
2018-10-02T02:10:46.559Z,-76
2018-10-02T02:11:46.453Z,-77
2018-10-02T02:12:46.553Z,-77
2018-10-02T02:13:46.429Z,-76
2018-10-02T02:14:46.557Z,-76
2018-10-02T02:15:46.431Z,-76
2018-10-02T02:16:46.581Z,-76
2018-10-02T02:17:46.431Z,-76
2018-10-02T02:18:46.559Z,-76
2018-10-02T02:19:46.433Z,-76
2018-10-02T02:20:46.568Z,-77
2018-10-02T02:21:46.460Z,-77
2018-10-02T02:22:46.562Z,-76
2018-10-02T02:23:46.437Z,-77
2018-10-02T02:24:46.563Z,-76
2018-10-02T02:25:46.437Z,-77
2018-10-02T02:26:46.592Z,-76
2018-10-02T02:27:46.441Z,-76
2018-10-02T02:28:46.569Z,-76
2018-10-02T02:29:46.441Z,-76
2018-10-02T02:30:46.569Z,-77
2018-10-02T02:31:46.466Z,-76
2018-10-02T02:32:46.618Z,-76
2018-10-02T02:33:46.446Z,-76
2018-10-02T02:34:46.579Z,-77
2018-10-02T02:35:46.447Z,-77
2018-10-02T02:36:46.612Z,-77
2018-10-02T02:37:46.453Z,-77
2018-10-02T02:38:46.579Z,-77
2018-10-02T02:39:46.449Z,-77
2018-10-02T02:40:49.603Z,-77
2018-10-02T02:41:46.451Z,-77
2018-10-02T02:42:46.609Z,-77
2018-10-02T02:43:46.453Z,-77
2018-10-02T02:44:46.585Z,-77
2018-10-02T02:45:46.454Z,-77
2018-10-02T02:46:46.585Z,-77
2018-10-02T02:47:46.480Z,-77
2018-10-02T02:48:46.600Z,-77
2018-10-02T02:49:46.457Z,-77
2018-10-02T02:50:46.592Z,-76
2018-10-02T02:51:46.459Z,-76
2018-10-02T02:52:46.860Z,-76
2018-10-02T02:53:46.461Z,-76
2018-10-02T02:54:46.591Z,-76
2018-10-02T02:55:46.467Z,-77
2018-10-02T02:56:46.599Z,-77
2018-10-02T02:57:46.491Z,-77
2018-10-02T02:58:46.594Z,-77
2018-10-02T02:59:46.469Z,-77
2018-10-02T03:00:46.597Z,-77
2018-10-02T03:01:46.475Z,-77
2018-10-02T03:02:46.622Z,-77
2018-10-02T03:03:46.468Z,-77
2018-10-02T03:04:46.598Z,-77
2018-10-02T03:05:46.471Z,-77
2018-10-02T03:06:46.606Z,-77
2018-10-02T03:07:46.495Z,-77
2018-10-02T03:08:46.605Z,-77
2018-10-02T03:09:46.474Z,-76
2018-10-02T03:10:46.608Z,-76
2018-10-02T03:11:46.475Z,-76
2018-10-02T03:12:46.635Z,-76
2018-10-02T03:13:46.486Z,-76
2018-10-02T03:14:46.605Z,-76
2018-10-02T03:15:46.479Z,-77
2018-10-02T03:16:46.622Z,-77
2018-10-02T03:17:46.505Z,-78
2018-10-02T03:18:46.617Z,-77
2018-10-02T03:19:46.481Z,-77
2018-10-02T03:20:46.610Z,-77
2018-10-02T03:21:46.543Z,-77
2018-10-02T03:22:46.642Z,-77
2018-10-02T03:23:46.486Z,-77
2018-10-02T03:24:46.614Z,-77
2018-10-02T03:25:46.486Z,-77
2018-10-02T03:26:46.618Z,-76
2018-10-02T03:27:46.512Z,-76
2018-10-02T03:28:46.620Z,-76
2018-10-02T03:29:46.491Z,-76
2018-10-02T03:30:46.624Z,-76
2018-10-02T03:31:46.493Z,-76
2018-10-02T03:32:46.645Z,-76
2018-10-02T03:33:46.493Z,-76
2018-10-02T03:34:46.625Z,-75
2018-10-02T03:35:46.496Z,-75
2018-10-02T03:36:46.623Z,-75
2018-10-02T03:37:46.534Z,-75
2018-10-02T03:38:46.626Z,-75
2018-10-02T03:39:46.498Z,-75
2018-10-02T03:40:46.630Z,-75
2018-10-02T03:41:46.499Z,-75
2018-10-02T03:42:46.655Z,-75
2018-10-02T03:43:46.501Z,-76
2018-10-02T03:44:46.630Z,-77
2018-10-02T03:45:46.503Z,-76
2018-10-02T03:46:46.630Z,-75
2018-10-02T03:47:46.530Z,-76
2018-10-02T03:48:46.759Z,-77
2018-10-02T03:49:46.507Z,-77
2018-10-02T03:50:46.670Z,-77
2018-10-02T03:51:46.508Z,-77
2018-10-02T03:52:46.675Z,-77
2018-10-02T03:53:46.511Z,-77
2018-10-02T03:54:46.639Z,-77
2018-10-02T03:55:46.513Z,-77
2018-10-02T03:56:46.645Z,-77
2018-10-02T03:57:46.537Z,-77
2018-10-02T03:58:46.650Z,-77
2018-10-02T03:59:46.519Z,-77
2018-10-02T04:00:46.661Z,-77
2018-10-02T04:01:46.523Z,-77
2018-10-02T04:02:46.652Z,-77
2018-10-02T04:03:46.543Z,-77
2018-10-02T04:04:46.648Z,-76
2018-10-02T04:05:46.520Z,-76
2018-10-02T04:06:46.648Z,-76
2018-10-02T04:07:46.523Z,-76
2018-10-02T04:08:46.678Z,-75
2018-10-02T04:09:46.524Z,-75
2018-10-02T04:10:46.653Z,-75
2018-10-02T04:11:46.530Z,-75
2018-10-02T04:12:46.688Z,-75
2018-10-02T04:13:46.551Z,-75
2018-10-02T04:14:46.657Z,-75
2018-10-02T04:15:46.528Z,-75
2018-10-02T04:16:46.658Z,-75
2018-10-02T04:17:46.529Z,-75
2018-10-02T04:18:46.683Z,-75
2018-10-02T04:19:46.532Z,-75
2018-10-02T04:20:46.809Z,-75
2018-10-02T04:21:46.533Z,-76
2018-10-02T04:22:46.675Z,-76
2018-10-02T04:23:46.558Z,-76
2018-10-02T04:24:46.660Z,-76
2018-10-02T04:25:46.537Z,-76
2018-10-02T04:26:46.668Z,-76
2018-10-02T04:27:46.546Z,-76
2018-10-02T04:28:46.690Z,-75
2018-10-02T04:29:46.539Z,-75
2018-10-02T04:30:46.668Z,-75
2018-10-02T04:31:46.542Z,-75
2018-10-02T04:32:46.676Z,-75
2018-10-02T04:33:46.603Z,-75
2018-10-02T04:34:46.679Z,-75
2018-10-02T04:35:46.544Z,-75
2018-10-02T04:36:46.700Z,-75
2018-10-02T04:37:46.545Z,-75
2018-10-02T04:38:46.699Z,-75
2018-10-02T04:39:46.547Z,-75
2018-10-02T04:40:46.677Z,-74
2018-10-02T04:41:46.549Z,-74
2018-10-02T04:42:46.679Z,-74
2018-10-02T04:43:46.581Z,-75
2018-10-02T04:44:46.681Z,-75
2018-10-02T04:45:46.552Z,-75
2018-10-02T04:46:46.788Z,-75
2018-10-02T04:47:46.554Z,-75
2018-10-02T04:48:46.708Z,-75
2018-10-02T04:49:46.559Z,-75
2018-10-02T04:50:46.688Z,-75
2018-10-02T04:51:46.558Z,-75
2018-10-02T04:52:46.686Z,-75
2018-10-02T04:53:46.585Z,-75
2018-10-02T04:54:46.689Z,-75
2018-10-02T04:55:46.625Z,-75
2018-10-02T04:56:46.690Z,-75
2018-10-02T04:57:46.563Z,-75
2018-10-02T04:58:46.716Z,-75
2018-10-02T04:59:46.565Z,-75
2018-10-02T05:00:46.695Z,-75
2018-10-02T05:01:46.567Z,-75
2018-10-02T05:02:46.697Z,-75
2018-10-02T05:03:46.592Z,-74
2018-10-02T05:04:46.698Z,-74
2018-10-02T05:05:46.569Z,-74
2018-10-02T05:06:46.704Z,-74
2018-10-02T05:07:46.572Z,-74
2018-10-02T05:08:46.851Z,-75
2018-10-02T05:09:46.573Z,-74
2018-10-02T05:10:46.707Z,-74
2018-10-02T05:11:46.586Z,-74
2018-10-02T05:12:46.708Z,-74
2018-10-02T05:13:46.604Z,-74
2018-10-02T05:14:46.713Z,-74
2018-10-02T05:15:46.579Z,-74
2018-10-02T05:16:46.716Z,-74
2018-10-02T05:17:46.582Z,-74
2018-10-02T05:18:46.768Z,-74
2018-10-02T05:19:46.584Z,-74
2018-10-02T05:20:46.919Z,-74
2018-10-02T05:21:46.586Z,-74
2018-10-02T05:22:46.712Z,-74
2018-10-02T05:23:46.609Z,-74
2018-10-02T05:24:46.731Z,-74
2018-10-02T05:25:46.597Z,-74
2018-10-02T05:26:46.726Z,-74
2018-10-02T05:27:46.705Z,-74
2018-10-02T05:28:46.745Z,-74
2018-10-02T05:29:46.599Z,-74
2018-10-02T05:30:46.734Z,-74
2018-10-02T05:31:46.593Z,-74
2018-10-02T05:32:46.739Z,-74
2018-10-02T05:33:46.618Z,-74
2018-10-02T05:34:46.724Z,-74
2018-10-02T05:35:46.594Z,-74
2018-10-02T05:36:46.724Z,-74
2018-10-02T05:37:46.596Z,-74
2018-10-02T05:38:46.749Z,-74
2018-10-02T05:39:46.599Z,-74
2018-10-02T05:40:46.727Z,-74
2018-10-02T05:41:46.600Z,-74
2018-10-02T05:42:46.883Z,-74
2018-10-02T05:43:46.602Z,-74
2018-10-02T05:44:46.824Z,-74
2018-10-02T05:45:46.633Z,-74
2018-10-02T05:46:46.739Z,-72
2018-10-02T05:47:46.605Z,-73
2018-10-02T05:48:46.748Z,-73
2018-10-02T05:49:46.631Z,-73
2018-10-02T05:50:47.074Z,-73
2018-10-02T05:51:46.608Z,-73
2018-10-02T05:52:46.757Z,-73
2018-10-02T05:53:46.619Z,-73
2018-10-02T05:54:46.795Z,-73
2018-10-02T05:55:46.611Z,-73
2018-10-02T05:56:46.742Z,-73
2018-10-02T05:57:46.614Z,-73
2018-10-02T05:58:46.743Z,-73
2018-10-02T05:59:46.648Z,-73
2018-10-02T06:00:46.811Z,-73
2018-10-02T06:01:46.625Z,-73
2018-10-02T06:02:46.753Z,-73
2018-10-02T06:03:46.706Z,-73
2018-10-02T06:04:46.980Z,-73
2018-10-02T06:05:46.628Z,-73
2018-10-02T06:06:46.755Z,-73
2018-10-02T06:07:46.622Z,-73
2018-10-02T06:08:46.763Z,-74
2018-10-02T06:09:46.702Z,-74
2018-10-02T06:10:49.615Z,-73
2018-10-02T06:11:46.625Z,-73
2018-10-02T06:12:46.755Z,-73
2018-10-02T06:13:46.627Z,-73
2018-10-02T06:14:46.782Z,-73
2018-10-02T06:15:46.628Z,-73
2018-10-02T06:16:46.758Z,-73
2018-10-02T06:17:46.630Z,-73
2018-10-02T06:18:46.897Z,-73
2018-10-02T06:19:46.656Z,-72
2018-10-02T06:20:46.762Z,-72
2018-10-02T06:21:46.634Z,-72
2018-10-02T06:22:46.789Z,-72
2018-10-02T06:23:46.635Z,-72
2018-10-02T06:24:46.940Z,-72
2018-10-02T06:25:46.647Z,-72
2018-10-02T06:26:46.767Z,-72
2018-10-02T06:27:46.639Z,-72
2018-10-02T06:28:46.781Z,-72
2018-10-02T06:29:46.664Z,-73
2018-10-02T06:30:46.783Z,-73
2018-10-02T06:31:46.642Z,-72
2018-10-02T06:32:47.132Z,-72
2018-10-02T06:33:46.642Z,-72
2018-10-02T06:34:46.808Z,-72
2018-10-02T06:35:46.645Z,-72
2018-10-02T06:36:46.934Z,-72
2018-10-02T06:37:46.647Z,-72
2018-10-02T06:38:46.931Z,-72
2018-10-02T06:39:46.673Z,-73
2018-10-02T06:40:46.794Z,-73
2018-10-02T06:41:46.650Z,-72
2018-10-02T06:42:46.781Z,-72
2018-10-02T06:43:46.706Z,-72
2018-10-02T06:44:47.152Z,-72
2018-10-02T06:45:46.654Z,-72
2018-10-02T06:46:46.791Z,-72
2018-10-02T06:47:46.655Z,-72
2018-10-02T06:48:46.788Z,-72
2018-10-02T06:49:46.681Z,-72
2018-10-02T06:50:46.903Z,-72
2018-10-02T06:51:46.726Z,-72
2018-10-02T06:52:47.534Z,-72
2018-10-02T06:53:46.674Z,-72
2018-10-02T06:54:46.816Z,-73
2018-10-02T06:55:46.669Z,-72
2018-10-02T06:56:46.853Z,-72
2018-10-02T06:57:46.662Z,-72
2018-10-02T06:58:46.813Z,-72
2018-10-02T06:59:46.697Z,-72
2018-10-02T07:00:46.793Z,-72
2018-10-02T07:01:46.666Z,-73
2018-10-02T07:02:46.870Z,-73
2018-10-02T07:03:46.667Z,-73
2018-10-02T07:04:46.820Z,-73
2018-10-02T07:05:46.678Z,-73
2018-10-02T07:06:46.912Z,-73
2018-10-02T07:07:46.679Z,-73
2018-10-02T07:08:46.914Z,-73
2018-10-02T07:09:46.710Z,-73
2018-10-02T07:10:46.819Z,-73
2018-10-02T07:11:46.675Z,-73
2018-10-02T07:12:46.805Z,-73
2018-10-02T07:13:46.676Z,-73
2018-10-02T07:14:46.919Z,-73
2018-10-02T07:15:46.711Z,-73
2018-10-02T07:16:46.828Z,-72
2018-10-02T07:17:46.680Z,-73
2018-10-02T07:18:46.807Z,-73
2018-10-02T07:19:46.681Z,-73
2018-10-02T07:20:46.948Z,-73
2018-10-02T07:21:46.682Z,-73
2018-10-02T07:22:46.832Z,-73
2018-10-02T07:23:46.685Z,-73
2018-10-02T07:24:46.815Z,-73
2018-10-02T07:25:46.711Z,-73
2018-10-02T07:26:47.373Z,-73
2018-10-02T07:27:46.812Z,-73
2018-10-02T07:28:46.817Z,-73
2018-10-02T07:29:46.715Z,-72
2018-10-02T07:30:46.919Z,-73
2018-10-02T07:31:46.692Z,-73
2018-10-02T07:32:46.859Z,-73
2018-10-02T07:33:46.746Z,-73
2018-10-02T07:34:46.838Z,-73
2018-10-02T07:35:46.720Z,-73
2018-10-02T07:36:46.832Z,-73
2018-10-02T07:37:46.697Z,-73
2018-10-02T07:38:46.891Z,-73
2018-10-02T07:39:46.706Z,-73
2018-10-02T07:40:46.856Z,-73
2018-10-02T07:41:46.717Z,-73
2018-10-02T07:42:46.827Z,-73
2018-10-02T07:43:46.703Z,-73
2018-10-02T07:44:46.885Z,-73
2018-10-02T07:45:46.727Z,-73
2018-10-02T07:46:47.091Z,-72
2018-10-02T07:47:46.755Z,-72
2018-10-02T07:48:46.836Z,-73
2018-10-02T07:49:46.706Z,-73
2018-10-02T07:50:46.934Z,-73
2018-10-02T07:51:46.710Z,-72
2018-10-02T07:52:46.846Z,-72
2018-10-02T07:53:46.728Z,-73
2018-10-02T07:54:46.853Z,-73
2018-10-02T07:55:46.736Z,-73
2018-10-02T07:56:46.924Z,-73
2018-10-02T07:57:46.714Z,-73
2018-10-02T07:58:46.844Z,-72
2018-10-02T07:59:46.837Z,-73
2018-10-02T08:00:46.868Z,-73
2018-10-02T08:01:46.714Z,-73
2018-10-02T08:02:46.912Z,-72
2018-10-02T08:03:46.718Z,-73
2018-10-02T08:04:47.050Z,-73
2018-10-02T08:05:46.784Z,-73
2018-10-02T08:06:46.860Z,-73
2018-10-02T08:07:46.721Z,-73
2018-10-02T08:08:46.964Z,-73
2018-10-02T08:09:46.724Z,-73
2018-10-02T08:10:46.898Z,-73
2018-10-02T08:11:46.741Z,-73
2018-10-02T08:12:46.859Z,-73
2018-10-02T08:13:46.732Z,-73
2018-10-02T08:14:46.950Z,-73
2018-10-02T08:15:46.754Z,-73
2018-10-02T08:16:46.872Z,-73
2018-10-02T08:17:46.783Z,-73
2018-10-02T08:18:46.861Z,-72
2018-10-02T08:19:46.772Z,-73
2018-10-02T08:20:46.979Z,-73
2018-10-02T08:21:46.734Z,-73
2018-10-02T08:22:46.872Z,-73
2018-10-02T08:23:46.763Z,-73
2018-10-02T08:24:46.878Z,-72
2018-10-02T08:25:46.769Z,-73
2018-10-02T08:26:46.994Z,-73
2018-10-02T08:27:46.748Z,-73
2018-10-02T08:28:46.869Z,-73
2018-10-02T08:29:46.815Z,-73
2018-10-02T08:30:46.905Z,-73
2018-10-02T08:31:46.750Z,-73
2018-10-02T08:32:46.989Z,-73
2018-10-02T08:33:46.743Z,-73
2018-10-02T08:34:46.893Z,-73
2018-10-02T08:35:46.911Z,-73
2018-10-02T08:36:46.886Z,-73
2018-10-02T08:37:46.758Z,-73
2018-10-02T08:38:46.909Z,-73
2018-10-02T08:39:46.756Z,-73
2018-10-02T08:40:46.908Z,-73
2018-10-02T08:41:46.765Z,-73
2018-10-02T08:42:46.879Z,-73
2018-10-02T08:43:46.821Z,-73
2018-10-02T08:44:46.922Z,-73
2018-10-02T08:45:46.777Z,-73
2018-10-02T08:46:46.953Z,-73
2018-10-02T08:47:46.792Z,-73
2018-10-02T08:48:46.884Z,-73
2018-10-02T08:49:46.770Z,-73
2018-10-02T08:50:47.028Z,-73
2018-10-02T08:51:46.776Z,-73
2018-10-02T08:52:46.888Z,-73
2018-10-02T08:53:46.804Z,-73
2018-10-02T08:54:46.895Z,-73
2018-10-02T08:55:46.764Z,-73
2018-10-02T08:56:46.915Z,-73
2018-10-02T08:57:46.772Z,-73
2018-10-02T08:58:46.914Z,-73
2018-10-02T08:59:46.774Z,-73
2018-10-02T09:00:47.222Z,-73
2018-10-02T09:01:46.800Z,-73
2018-10-02T09:02:46.896Z,-73
2018-10-02T09:03:46.775Z,-73
2018-10-02T09:04:46.895Z,-73
2018-10-02T09:05:46.781Z,-73
2018-10-02T09:06:47.021Z,-73
2018-10-02T09:07:46.771Z,-73
2018-10-02T09:08:46.902Z,-73
2018-10-02T09:09:46.775Z,-73
2018-10-02T09:10:46.903Z,-73
2018-10-02T09:11:46.800Z,-73
2018-10-02T09:12:46.985Z,-73
2018-10-02T09:13:46.855Z,-73
2018-10-02T09:14:46.918Z,-74
2018-10-02T09:15:46.893Z,-73
2018-10-02T09:16:47.060Z,-73
2018-10-02T09:17:46.780Z,-73
2018-10-02T09:18:47.003Z,-73
2018-10-02T09:19:46.781Z,-73
2018-10-02T09:20:46.983Z,-73
2018-10-02T09:21:46.822Z,-73
2018-10-02T09:22:46.927Z,-73
2018-10-02T09:23:46.796Z,-73
2018-10-02T09:24:46.958Z,-73
2018-10-02T09:25:46.786Z,-73
2018-10-02T09:26:46.951Z,-73
2018-10-02T09:27:46.797Z,-73
2018-10-02T09:28:46.917Z,-73
2018-10-02T09:29:46.790Z,-73
2018-10-02T09:30:47.249Z,-73
2018-10-02T09:31:46.819Z,-73
2018-10-02T09:32:46.921Z,-73
2018-10-02T09:33:46.796Z,-73
2018-10-02T09:34:46.923Z,-73
2018-10-02T09:35:46.796Z,-73
2018-10-02T09:36:46.999Z,-73
2018-10-02T09:37:46.795Z,-73
2018-10-02T09:38:46.924Z,-73
2018-10-02T09:39:46.821Z,-73
2018-10-02T09:40:46.941Z,-73
2018-10-02T09:41:46.825Z,-73
2018-10-02T09:42:47.029Z,-73
2018-10-02T09:43:46.859Z,-73
2018-10-02T09:44:46.947Z,-73
2018-10-02T09:45:46.834Z,-73
2018-10-02T09:46:46.964Z,-73
2018-10-02T09:47:46.806Z,-73
2018-10-02T09:48:47.018Z,-73
2018-10-02T09:49:46.848Z,-73
2018-10-02T09:50:47.040Z,-73
2018-10-02T09:51:46.887Z,-73
2018-10-02T09:52:46.964Z,-73
2018-10-02T09:53:46.809Z,-73
2018-10-02T09:54:46.976Z,-73
2018-10-02T09:55:46.813Z,-73
2018-10-02T09:56:47.008Z,-73
2018-10-02T09:57:46.814Z,-73
2018-10-02T09:58:46.958Z,-73
2018-10-02T09:59:46.815Z,-73
2018-10-02T10:00:46.989Z,-73
2018-10-02T10:01:46.854Z,-73
2018-10-02T10:02:46.964Z,-73
2018-10-02T10:03:46.819Z,-73
2018-10-02T10:04:46.947Z,-73
2018-10-02T10:05:46.827Z,-73
2018-10-02T10:06:46.967Z,-73
2018-10-02T10:07:46.855Z,-73
2018-10-02T10:08:46.961Z,-73
2018-10-02T10:09:46.827Z,-73
2018-10-02T10:10:46.955Z,-73
2018-10-02T10:11:46.825Z,-73
2018-10-02T10:12:46.989Z,-73
2018-10-02T10:13:46.826Z,-73
2018-10-02T10:14:46.984Z,-73
2018-10-02T10:15:46.830Z,-73
2018-10-02T10:16:47.443Z,-73
2018-10-02T10:17:46.862Z,-73
2018-10-02T10:18:46.983Z,-73
2018-10-02T10:19:46.832Z,-73
2018-10-02T10:20:46.961Z,-73
2018-10-02T10:21:46.833Z,-73
2018-10-02T10:22:47.090Z,-73
2018-10-02T10:23:46.836Z,-73
2018-10-02T10:24:46.971Z,-73
2018-10-02T10:25:46.836Z,-73
2018-10-02T10:26:46.969Z,-73
2018-10-02T10:27:46.861Z,-73
2018-10-02T10:28:47.055Z,-73
2018-10-02T10:29:46.847Z,-73
2018-10-02T10:30:46.987Z,-73
2018-10-02T10:31:46.842Z,-73
2018-10-02T10:32:47.380Z,-73
2018-10-02T10:33:46.978Z,-73
2018-10-02T10:34:47.224Z,-73
2018-10-02T10:35:46.853Z,-73
2018-10-02T10:36:46.975Z,-74
2018-10-02T10:37:46.878Z,-74
2018-10-02T10:38:47.131Z,-73
2018-10-02T10:39:46.903Z,-73
2018-10-02T10:40:47.037Z,-73
2018-10-02T10:41:47.065Z,-74
2018-10-02T10:42:47.016Z,-73
2018-10-02T10:43:46.851Z,-74
2018-10-02T10:44:46.995Z,-74
2018-10-02T10:45:46.862Z,-74
2018-10-02T10:46:47.043Z,-73
2018-10-02T10:47:46.966Z,-73
2018-10-02T10:48:46.985Z,-74
2018-10-02T10:49:46.857Z,-74
2018-10-02T10:50:47.001Z,-74
2018-10-02T10:51:46.868Z,-73
2018-10-02T10:52:47.074Z,-73
2018-10-02T10:53:46.860Z,-73
2018-10-02T10:54:46.990Z,-73
2018-10-02T10:55:46.870Z,-73
2018-10-02T10:56:46.991Z,-74
2018-10-02T10:57:46.886Z,-73
2018-10-02T10:58:47.079Z,-73
2018-10-02T10:59:46.867Z,-73
2018-10-02T11:00:46.994Z,-73
2018-10-02T11:01:46.866Z,-73
2018-10-02T11:02:47.175Z,-74
2018-10-02T11:03:46.869Z,-73
2018-10-02T11:04:47.042Z,-74
2018-10-02T11:05:46.870Z,-74
2018-10-02T11:06:47.002Z,-74
2018-10-02T11:07:46.897Z,-74
2018-10-02T11:08:47.185Z,-73
2018-10-02T11:09:46.874Z,-73
2018-10-02T11:10:47.007Z,-74
2018-10-02T11:11:46.878Z,-73
2018-10-02T11:12:47.014Z,-73
2018-10-02T11:13:46.958Z,-73
2018-10-02T11:14:47.008Z,-74
2018-10-02T11:15:46.886Z,-73
2018-10-02T11:16:47.011Z,-74
2018-10-02T11:17:46.885Z,-74
2018-10-02T11:18:47.055Z,-73
2018-10-02T11:19:46.884Z,-74
2018-10-02T11:20:47.025Z,-74
2018-10-02T11:21:46.961Z,-74
2018-10-02T11:22:47.022Z,-74
2018-10-02T11:23:46.936Z,-73
2018-10-02T11:24:47.018Z,-73
2018-10-02T11:25:46.973Z,-73
2018-10-02T11:26:47.028Z,-73
2018-10-02T11:27:46.889Z,-73
2018-10-02T11:28:47.055Z,-74
2018-10-02T11:29:46.906Z,-73
2018-10-02T11:30:47.021Z,-74
2018-10-02T11:31:46.939Z,-74
2018-10-02T11:32:47.043Z,-74
2018-10-02T11:33:46.927Z,-74
2018-10-02T11:34:47.033Z,-74
2018-10-02T11:35:46.898Z,-74
2018-10-02T11:36:47.029Z,-74
2018-10-02T11:37:47.009Z,-74
2018-10-02T11:38:47.055Z,-74
2018-10-02T11:39:46.900Z,-74
2018-10-02T11:40:47.047Z,-73
2018-10-02T11:41:46.902Z,-74
2018-10-02T11:42:47.054Z,-74
2018-10-02T11:43:47.001Z,-74
2018-10-02T11:44:47.579Z,-74
2018-10-02T11:45:46.905Z,-74
2018-10-02T11:46:47.042Z,-73
2018-10-02T11:47:46.905Z,-74
2018-10-02T11:48:47.076Z,-74
2018-10-02T11:49:47.017Z,-74
2018-10-02T11:50:47.113Z,-74
2018-10-02T11:51:46.917Z,-74
2018-10-02T11:52:47.050Z,-74
2018-10-02T11:53:46.911Z,-74
2018-10-02T11:54:47.064Z,-74
2018-10-02T11:55:46.978Z,-74
2018-10-02T11:56:47.081Z,-74
2018-10-02T11:57:46.915Z,-74
2018-10-02T11:58:47.044Z,-74
2018-10-02T11:59:46.940Z,-74
2018-10-02T12:00:47.158Z,-74
2018-10-02T12:01:46.918Z,-74
2018-10-02T12:02:47.056Z,-74
2018-10-02T12:03:47.009Z,-74
2018-10-02T12:04:47.094Z,-74
2018-10-02T12:05:46.931Z,-74
2018-10-02T12:06:47.222Z,-74
2018-10-02T12:07:46.921Z,-74
2018-10-02T12:08:47.143Z,-74
2018-10-02T12:09:46.980Z,-74
2018-10-02T12:10:47.080Z,-74
2018-10-02T12:11:46.934Z,-74
2018-10-02T12:12:47.129Z,-74
2018-10-02T12:13:47.078Z,-74
2018-10-02T12:14:47.332Z,-74
2018-10-02T12:15:46.931Z,-74
2018-10-02T12:16:47.072Z,-74
2018-10-02T12:17:46.931Z,-74
2018-10-02T12:18:47.060Z,-74
2018-10-02T12:19:47.202Z,-73
2018-10-02T12:20:47.070Z,-74
2018-10-02T12:21:46.947Z,-74
2018-10-02T12:22:47.098Z,-74
2018-10-02T12:23:47.064Z,-74
2018-10-02T12:24:47.092Z,-74
2018-10-02T12:25:46.953Z,-74
2018-10-02T12:26:47.081Z,-74
2018-10-02T12:27:46.939Z,-74
2018-10-02T12:28:47.069Z,-74
2018-10-02T12:29:46.967Z,-74
2018-10-02T12:30:47.080Z,-74
2018-10-02T12:31:46.942Z,-74
2018-10-02T12:32:47.072Z,-74
2018-10-02T12:33:46.943Z,-74
2018-10-02T12:34:47.108Z,-74
2018-10-02T12:35:46.946Z,-74
2018-10-02T12:36:47.077Z,-74
2018-10-02T12:37:46.948Z,-74
2018-10-02T12:38:47.216Z,-74
2018-10-02T12:39:46.977Z,-74
2018-10-02T12:40:47.081Z,-74
2018-10-02T12:41:46.951Z,-74
2018-10-02T12:42:47.094Z,-74
2018-10-02T12:43:46.955Z,-74
2018-10-02T12:44:47.108Z,-74
2018-10-02T12:45:46.954Z,-74
2018-10-02T12:46:47.120Z,-74
2018-10-02T12:47:46.955Z,-74
2018-10-02T12:48:47.087Z,-74
2018-10-02T12:49:46.982Z,-74
2018-10-02T12:50:47.096Z,-74
2018-10-02T12:51:46.974Z,-74
2018-10-02T12:52:47.639Z,-74
2018-10-02T12:53:46.962Z,-74
2018-10-02T12:54:47.128Z,-74
2018-10-02T12:55:46.972Z,-74
2018-10-02T12:56:47.101Z,-74
2018-10-02T12:57:46.965Z,-74
2018-10-02T12:58:47.097Z,-74
2018-10-02T12:59:47.009Z,-74
2018-10-02T13:00:47.096Z,-74
2018-10-02T13:01:46.973Z,-74
2018-10-02T13:02:47.105Z,-74
2018-10-02T13:03:46.972Z,-74
2018-10-02T13:04:47.111Z,-74
2018-10-02T13:05:46.995Z,-74
2018-10-02T13:06:47.163Z,-74
2018-10-02T13:07:46.975Z,-74
2018-10-02T13:08:47.106Z,-74
2018-10-02T13:09:46.985Z,-74
2018-10-02T13:10:47.131Z,-74
2018-10-02T13:11:46.978Z,-74
2018-10-02T13:12:47.107Z,-74
2018-10-02T13:13:46.979Z,-74
2018-10-02T13:14:47.118Z,-74
2018-10-02T13:15:47.014Z,-74
2018-10-02T13:16:47.381Z,-74
2018-10-02T13:17:46.982Z,-74
2018-10-02T13:18:47.120Z,-74
2018-10-02T13:19:47.024Z,-73
2018-10-02T13:20:47.137Z,-74
2018-10-02T13:21:46.985Z,-74
2018-10-02T13:22:47.116Z,-74
2018-10-02T13:23:46.987Z,-74
2018-10-02T13:24:47.261Z,-74
2018-10-02T13:25:47.014Z,-74
2018-10-02T13:26:47.129Z,-74
2018-10-02T13:27:46.991Z,-74
2018-10-02T13:28:47.130Z,-74
2018-10-02T13:29:46.991Z,-74
2018-10-02T13:30:47.145Z,-74
2018-10-02T13:31:46.994Z,-74
2018-10-02T13:32:47.140Z,-74
2018-10-02T13:33:47.009Z,-74
2018-10-02T13:34:47.466Z,-74
2018-10-02T13:35:47.030Z,-74
2018-10-02T13:36:47.134Z,-74
2018-10-02T13:37:47.008Z,-74
2018-10-02T13:38:47.132Z,-74
2018-10-02T13:39:47.000Z,-74
2018-10-02T13:40:47.171Z,-74
2018-10-02T13:41:47.002Z,-74
2018-10-02T13:42:47.133Z,-74
2018-10-02T13:43:47.004Z,-74
2018-10-02T13:44:47.544Z,-74
2018-10-02T13:45:47.034Z,-74
2018-10-02T13:46:47.137Z,-74